Time;durP1;ratioP1;P1;durP2;ratioP2;P2;SDS_P1;SDS_P2;PMS_P1;PMS_P2;Temp;Humidity;BMP_temperature;BMP_pressure;BME280_temperature;BME280_humidity;BME280_pressure;Samples;Min_cycle;Max_cycle;Signal;HPM_P1;HPM_P2
2024/04/04 00:00:23;;;;;;;26.87;11.57;;;10.50;99.90;;;;;;800178;179;26635;-85
2024/04/04 00:02:51;;;;;;;107.23;35.23;;;10.50;99.90;;;;;;800740;179;26473;-85
2024/04/04 00:05:17;;;;;;;99.57;33.47;;;10.60;99.90;;;;;;801706;179;26614;-85
2024/04/04 00:07:44;;;;;;;36.03;14.27;;;10.60;99.90;;;;;;799501;180;26542;-85
2024/04/04 00:10:11;;;;;;;50.90;19.87;;;10.60;99.90;;;;;;798195;180;26479;-85
2024/04/04 00:12:37;;;;;;;15.13;5.47;;;10.60;99.90;;;;;;798121;177;26488;-85
2024/04/04 00:15:04;;;;;;;5.40;3.03;;;10.60;99.90;;;;;;797791;180;26451;-85
2024/04/04 00:17:31;;;;;;;8.50;2.63;;;10.60;99.90;;;;;;798728;179;26465;-85
2024/04/04 00:19:57;;;;;;;5.73;2.00;;;10.60;99.90;;;;;;800164;178;26510;-85
2024/04/04 00:22:24;;;;;;;6.50;2.30;;;10.50;99.90;;;;;;800089;179;26444;-85
2024/04/04 00:24:51;;;;;;;8.17;2.80;;;10.50;99.90;;;;;;800501;179;26438;-84
2024/04/04 00:27:17;;;;;;;8.97;3.07;;;10.60;99.90;;;;;;800779;179;28238;-84
2024/04/04 00:29:44;;;;;;;5.87;2.40;;;10.70;99.90;;;;;;800587;177;26973;-85
2024/04/04 00:32:11;;;;;;;5.03;2.40;;;10.70;99.90;;;;;;800921;178;27026;-85
2024/04/04 00:34:37;;;;;;;5.83;2.40;;;10.70;99.90;;;;;;800582;179;26437;-84
2024/04/04 00:37:06;;;;;;;8.80;2.50;;;10.80;99.90;;;;;;800318;178;26453;-84
2024/04/04 00:39:31;;;;;;;9.77;2.57;;;10.80;99.90;;;;;;800758;178;26482;-85
2024/04/04 00:41:57;;;;;;;6.53;2.37;;;10.70;99.90;;;;;;798697;179;26496;-85
2024/04/04 00:44:24;;;;;;;6.73;2.30;;;10.80;99.90;;;;;;801587;179;26494;-85
2024/04/04 00:46:51;;;;;;;4.80;2.33;;;10.90;99.90;;;;;;800199;179;26634;-85
2024/04/04 00:49:17;;;;;;;7.30;2.70;;;10.90;99.90;;;;;;802747;177;26539;-85
2024/04/04 00:51:44;;;;;;;5.93;2.47;;;11.00;99.90;;;;;;801511;179;26442;-86
2024/04/04 00:54:10;;;;;;;8.00;2.50;;;11.00;99.90;;;;;;801402;179;26474;-85
2024/04/04 00:56:37;;;;;;;6.77;2.40;;;11.00;99.90;;;;;;801859;179;26457;-85
2024/04/04 00:59:06;;;;;;;10.30;2.70;;;11.00;99.90;;;;;;800876;179;26487;-85
2024/04/04 01:01:30;;;;;;;8.90;2.73;;;11.10;99.90;;;;;;799510;177;26619;-85
2024/04/04 01:03:57;;;;;;;4.57;2.30;;;11.10;99.90;;;;;;800961;179;26450;-84
2024/04/04 01:06:29;;;;;;;4.77;2.00;;;11.20;99.90;;;;;;800070;179;26437;-86
2024/04/04 01:08:56;;;;;;;5.63;2.30;;;11.10;99.90;;;;;;799573;178;26454;-85
2024/04/04 01:11:22;;;;;;;5.13;2.10;;;11.20;99.90;;;;;;801763;179;26608;-85
2024/04/04 01:13:49;;;;;;;4.37;2.37;;;11.10;99.90;;;;;;799637;178;26554;-85
2024/04/04 01:16:16;;;;;;;6.90;2.17;;;11.10;99.90;;;;;;798896;177;26461;-85
2024/04/04 01:18:42;;;;;;;7.83;1.97;;;11.10;99.90;;;;;;800876;178;26446;-84
2024/04/04 01:21:09;;;;;;;8.13;2.23;;;11.00;99.90;;;;;;801053;179;26427;-85
2024/04/04 01:23:35;;;;;;;6.53;2.10;;;11.00;99.90;;;;;;800830;179;26449;-85
2024/04/04 01:26:02;;;;;;;4.97;2.23;;;11.10;99.90;;;;;;799697;178;26449;-85
2024/04/04 01:28:29;;;;;;;8.33;2.10;;;11.20;99.90;;;;;;799947;179;26580;-85
2024/04/04 01:30:57;;;;;;;6.37;2.67;;;11.20;99.90;;;;;;799927;179;26624;-85
2024/04/04 01:33:22;;;;;;;6.97;2.30;;;11.20;99.90;;;;;;796544;173;27563;-80
2024/04/04 01:35:48;;;;;;;6.10;2.37;;;11.20;99.90;;;;;;785772;183;26504;-79
2024/04/04 01:38:15;;;;;;;8.37;2.60;;;11.10;99.90;;;;;;776946;183;26461;-79
2024/04/04 01:40:42;;;;;;;8.80;3.37;;;11.10;99.90;;;;;;777295;182;26525;-79
2024/04/04 01:43:09;;;;;;;7.30;2.67;;;11.00;99.90;;;;;;774181;183;26498;-79
2024/04/04 01:45:35;;;;;;;7.63;2.37;;;10.90;99.90;;;;;;783052;183;26477;-80
2024/04/04 01:48:01;;;;;;;7.40;2.70;;;10.80;99.90;;;;;;781928;182;26474;-81
2024/04/04 01:50:28;;;;;;;5.40;2.47;;;10.70;99.90;;;;;;782027;183;26562;-80
2024/04/04 01:52:55;;;;;;;7.57;2.37;;;10.70;99.90;;;;;;782136;183;27082;-80
2024/04/04 01:55:21;;;;;;;7.00;3.33;;;10.60;99.90;;;;;;783677;183;26535;-80
2024/04/04 01:57:48;;;;;;;4.70;2.03;;;10.50;99.90;;;;;;783380;183;26477;-80
2024/04/04 02:00:15;;;;;;;5.43;2.33;;;10.30;99.90;;;;;;784828;181;26462;-81
2024/04/04 02:02:41;;;;;;;7.83;2.30;;;10.30;99.90;;;;;;785357;182;26478;-80
2024/04/04 02:05:08;;;;;;;5.73;2.10;;;10.20;99.90;;;;;;783981;182;26517;-81
2024/04/04 02:07:34;;;;;;;5.87;2.47;;;10.20;99.90;;;;;;785008;183;26491;-79
2024/04/04 02:10:04;;;;;;;4.83;2.30;;;10.20;99.90;;;;;;784588;183;26611;-80
2024/04/04 02:12:27;;;;;;;7.60;2.47;;;10.20;99.90;;;;;;782974;183;26490;-81
2024/04/04 02:14:54;;;;;;;6.10;2.50;;;10.20;99.90;;;;;;782567;183;26514;-80
2024/04/04 02:17:21;;;;;;;8.67;2.70;;;10.30;99.90;;;;;;786211;183;27077;-81
2024/04/04 02:19:47;;;;;;;7.67;2.40;;;10.40;99.90;;;;;;780895;184;26462;-80
2024/04/04 02:22:14;;;;;;;7.97;2.30;;;10.50;99.90;;;;;;783880;183;26473;-80
2024/04/04 02:24:40;;;;;;;4.87;2.13;;;10.60;99.90;;;;;;785582;183;26535;-80
2024/04/04 02:27:07;;;;;;;6.63;2.57;;;10.70;99.90;;;;;;781570;183;26488;-80
2024/04/04 02:29:34;;;;;;;9.10;2.90;;;10.80;99.90;;;;;;785440;180;26665;-80
2024/04/04 02:32:00;;;;;;;11.60;3.80;;;10.90;99.90;;;;;;784625;183;26472;-80
2024/04/04 02:34:27;;;;;;;7.33;2.47;;;11.00;99.90;;;;;;782363;183;26506;-79
2024/04/04 02:36:54;;;;;;;6.30;2.13;;;11.10;99.90;;;;;;781287;183;26469;-79
2024/04/04 02:39:20;;;;;;;7.77;2.40;;;11.20;99.90;;;;;;780211;183;26528;-80
2024/04/04 02:41:46;;;;;;;5.80;2.23;;;11.30;99.90;;;;;;782948;183;26484;-80
2024/04/04 02:44:13;;;;;;;5.83;2.90;;;11.30;99.90;;;;;;781447;183;26536;-79
2024/04/04 02:46:40;;;;;;;3.67;2.33;;;11.30;99.90;;;;;;782340;182;26476;-80
2024/04/04 02:49:07;;;;;;;8.03;2.50;;;11.30;99.90;;;;;;780264;184;27704;-79
2024/04/04 02:51:33;;;;;;;5.43;2.30;;;11.30;99.90;;;;;;783194;183;26471;-80
2024/04/04 02:53:59;;;;;;;5.90;2.30;;;11.30;99.90;;;;;;781380;183;26503;-79
2024/04/04 02:56:26;;;;;;;4.27;2.67;;;11.30;99.90;;;;;;784664;183;26466;-78
2024/04/04 02:58:53;;;;;;;7.47;2.90;;;11.20;99.90;;;;;;782183;183;26484;-79
2024/04/04 03:01:19;;;;;;;5.07;2.67;;;11.10;99.90;;;;;;780734;183;27116;-79
2024/04/04 03:03:46;;;;;;;6.80;2.50;;;11.00;99.90;;;;;;783292;181;26646;-78
2024/04/04 03:06:12;;;;;;;7.13;3.10;;;10.90;99.90;;;;;;781131;183;26484;-79
2024/04/04 03:08:39;;;;;;;10.23;3.70;;;10.90;99.90;;;;;;780634;184;26469;-80
2024/04/04 03:11:07;;;;;;;10.53;3.57;;;10.90;99.90;;;;;;784791;182;26477;-79
2024/04/04 03:13:32;;;;;;;9.53;3.20;;;10.90;99.90;;;;;;787254;182;26516;-79
2024/04/04 03:15:59;;;;;;;8.20;3.33;;;10.90;99.90;;;;;;783838;182;26510;-80
2024/04/04 03:18:25;;;;;;;8.40;3.33;;;11.00;99.90;;;;;;784773;183;26474;-80
2024/04/04 03:20:52;;;;;;;6.40;3.17;;;11.00;99.90;;;;;;782432;184;26721;-79
2024/04/04 03:23:19;;;;;;;5.47;3.17;;;11.10;99.90;;;;;;782654;183;26487;-80
2024/04/04 03:25:45;;;;;;;8.03;3.07;;;11.10;99.90;;;;;;784295;183;26488;-80
2024/04/04 03:28:12;;;;;;;7.27;3.20;;;11.10;99.90;;;;;;787180;183;26492;-81
2024/04/04 03:30:38;;;;;;;7.30;3.50;;;11.10;99.90;;;;;;783932;183;26491;-81
2024/04/04 03:33:05;;;;;;;11.33;3.90;;;11.10;99.90;;;;;;781843;181;26612;-80
2024/04/04 03:35:32;;;;;;;7.60;3.33;;;11.20;99.90;;;;;;781956;183;27562;-81
2024/04/04 03:38:02;;;;;;;7.47;3.63;;;11.20;99.90;;;;;;783449;183;26463;-80
2024/04/04 03:40:25;;;;;;;5.57;3.60;;;11.10;99.90;;;;;;783067;183;26467;-80
2024/04/04 03:42:51;;;;;;;7.80;2.83;;;11.10;99.90;;;;;;780812;183;26467;-79
2024/04/04 03:45:18;;;;;;;9.50;3.40;;;11.10;99.90;;;;;;785988;183;26459;-80
2024/04/04 03:47:44;;;;;;;13.63;3.73;;;11.10;99.90;;;;;;780658;184;26549;-80
2024/04/04 03:50:11;;;;;;;12.23;3.60;;;11.10;99.90;;;;;;783515;183;26466;-80
2024/04/04 03:52:38;;;;;;;6.07;2.97;;;11.00;99.90;;;;;;780888;184;26472;-79
2024/04/04 03:55:04;;;;;;;9.37;4.23;;;11.00;99.90;;;;;;785853;183;26600;-79
2024/04/04 03:57:31;;;;;;;6.30;3.20;;;11.00;99.90;;;;;;781402;183;26549;-80
2024/04/04 03:59:58;;;;;;;10.53;3.43;;;11.10;99.90;;;;;;781148;182;26482;-80
2024/04/04 04:02:24;;;;;;;4.90;2.90;;;11.10;99.90;;;;;;784395;183;26605;-80
2024/04/04 04:04:51;;;;;;;8.73;3.37;;;11.10;99.90;;;;;;784060;183;26507;-78
2024/04/04 04:07:17;;;;;;;8.13;3.60;;;11.10;99.90;;;;;;784126;182;26499;-79
2024/04/04 04:09:44;;;;;;;8.03;3.10;;;11.10;99.90;;;;;;785109;183;26482;-80
2024/04/04 04:12:10;;;;;;;8.73;3.97;;;11.20;99.90;;;;;;783845;183;26478;-79
2024/04/04 04:14:37;;;;;;;6.40;2.77;;;11.20;99.90;;;;;;792168;180;26516;-81
2024/04/04 04:17:04;;;;;;;17.87;3.53;;;11.20;99.90;;;;;;797356;180;26500;-79
2024/04/04 04:19:30;;;;;;;6.77;2.73;;;11.30;99.90;;;;;;790245;180;26497;-80
2024/04/04 04:21:57;;;;;;;5.13;3.10;;;11.40;99.90;;;;;;788630;180;26798;-78
2024/04/04 04:24:23;;;;;;;7.93;2.70;;;11.60;99.90;;;;;;792139;180;27010;-79
2024/04/04 04:26:53;;;;;;;9.77;2.63;;;11.70;99.90;;;;;;800261;180;26455;-80
2024/04/04 04:29:18;;;;;;;3.27;2.17;;;11.70;99.90;;;;;;798020;180;26466;-80
2024/04/04 04:31:44;;;;;;;6.13;2.30;;;11.70;99.90;;;;;;786783;181;26456;-80
2024/04/04 04:34:11;;;;;;;7.23;2.80;;;11.60;99.90;;;;;;785761;181;26496;-81
2024/04/04 04:36:38;;;;;;;7.87;2.80;;;11.70;99.90;;;;;;780765;183;26487;-81
2024/04/04 04:39:05;;;;;;;6.80;2.40;;;11.70;99.90;;;;;;783872;183;26483;-79
2024/04/04 04:41:31;;;;;;;8.50;2.43;;;11.70;99.90;;;;;;784202;180;26466;-80
2024/04/04 04:43:58;;;;;;;5.70;2.30;;;11.70;99.90;;;;;;780989;183;26502;-81
2024/04/04 04:46:24;;;;;;;5.30;2.40;;;11.70;99.90;;;;;;785556;182;26472;-80
2024/04/04 04:48:51;;;;;;;4.33;2.23;;;11.70;99.90;;;;;;784025;183;26584;-79
2024/04/04 04:51:17;;;;;;;10.37;2.60;;;11.70;99.90;;;;;;784730;182;26482;-79
2024/04/04 04:53:44;;;;;;;3.33;1.97;;;11.90;99.90;;;;;;784163;183;26507;-80
2024/04/04 04:56:11;;;;;;;5.00;2.10;;;12.00;99.90;;;;;;780976;183;26474;-81
2024/04/04 04:58:37;;;;;;;3.00;2.10;;;12.00;99.90;;;;;;780993;184;26463;-81
2024/04/04 05:01:04;;;;;;;5.77;1.80;;;12.10;99.90;;;;;;781687;183;26566;-80
2024/04/04 05:03:30;;;;;;;3.50;1.97;;;12.30;99.90;;;;;;780802;183;26499;-81
2024/04/04 05:05:57;;;;;;;5.40;2.07;;;12.30;99.90;;;;;;781099;183;26577;-80
2024/04/04 05:08:24;;;;;;;3.83;2.03;;;12.30;99.90;;;;;;783388;182;26996;-80
2024/04/04 05:10:51;;;;;;;5.53;2.27;;;12.30;99.90;;;;;;782281;183;26632;-81
2024/04/04 05:13:17;;;;;;;3.10;1.50;;;12.30;99.90;;;;;;783500;182;26951;-80
2024/04/04 05:15:46;;;;;;;4.80;2.03;;;12.50;99.90;;;;;;782674;180;26466;-77
2024/04/04 05:18:12;;;;;;;5.77;2.10;;;12.50;99.90;;;;;;780399;183;27111;-80
2024/04/04 05:20:39;;;;;;;3.53;1.87;;;12.50;99.90;;;;;;782218;183;26482;-80
2024/04/04 05:23:05;;;;;;;4.03;1.90;;;12.50;99.90;;;;;;786037;183;26864;-79
2024/04/04 05:25:32;;;;;;;6.83;2.23;;;12.50;99.90;;;;;;781029;181;26492;-76
2024/04/04 05:27:59;;;;;;;6.70;2.40;;;12.60;99.90;;;;;;782418;181;26499;-77
2024/04/04 05:30:26;;;;;;;3.37;1.93;;;12.50;99.90;;;;;;780405;181;26489;-79
2024/04/04 05:32:52;;;;;;;3.13;2.10;;;12.60;99.90;;;;;;779457;181;26758;-79
2024/04/04 05:35:18;;;;;;;4.33;2.00;;;12.50;99.90;;;;;;783916;181;26494;-79
2024/04/04 05:37:45;;;;;;;4.50;2.00;;;12.40;99.90;;;;;;785143;179;26497;-79
2024/04/04 05:40:12;;;;;;;4.13;2.13;;;12.40;99.90;;;;;;785638;179;26514;-79
2024/04/04 05:42:38;;;;;;;5.43;2.00;;;12.30;99.90;;;;;;794627;180;26454;-80
2024/04/04 05:45:05;;;;;;;3.87;2.17;;;12.30;99.90;;;;;;798019;180;26464;-80
2024/04/04 05:47:32;;;;;;;6.20;2.37;;;12.30;99.90;;;;;;784228;183;26493;-82
2024/04/04 05:49:58;;;;;;;4.90;2.13;;;12.30;99.90;;;;;;785579;183;26519;-81
2024/04/04 05:52:25;;;;;;;3.97;1.80;;;12.30;99.90;;;;;;785060;183;26531;-82
2024/04/04 05:54:52;;;;;;;5.73;2.23;;;12.40;99.90;;;;;;785442;183;26488;-81
2024/04/04 05:57:18;;;;;;;5.53;2.40;;;12.40;99.90;;;;;;782929;183;26483;-82
2024/04/04 05:59:45;;;;;;;4.37;2.20;;;12.30;99.90;;;;;;785160;183;26468;-80
2024/04/04 06:02:11;;;;;;;9.40;2.80;;;12.30;99.90;;;;;;781984;183;26463;-81
2024/04/04 06:04:39;;;;;;;6.10;2.50;;;12.40;99.90;;;;;;780851;184;27874;-79
2024/04/04 06:07:05;;;;;;;9.13;2.40;;;12.40;99.90;;;;;;784133;183;26503;-79
2024/04/04 06:09:31;;;;;;;3.43;2.27;;;12.40;99.90;;;;;;785644;183;26489;-78
2024/04/04 06:11:58;;;;;;;5.27;2.17;;;12.40;99.90;;;;;;782228;182;26524;-78
2024/04/04 06:14:24;;;;;;;5.17;2.40;;;12.40;99.90;;;;;;783408;183;26661;-80
2024/04/04 06:16:51;;;;;;;8.13;2.70;;;12.40;99.90;;;;;;780860;183;26504;-79
2024/04/04 06:19:18;;;;;;;8.70;3.40;;;12.30;99.90;;;;;;784067;182;26486;-79
2024/04/04 06:21:44;;;;;;;8.67;3.10;;;12.30;99.90;;;;;;780295;180;27045;-79
2024/04/04 06:24:11;;;;;;;4.87;2.73;;;12.30;99.90;;;;;;781026;183;26606;-80
2024/04/04 06:26:39;;;;;;;10.23;3.27;;;12.20;99.90;;;;;;782115;182;26480;-78
2024/04/04 06:29:04;;;;;;;11.27;3.00;;;12.30;99.90;;;;;;784084;183;26491;-80
2024/04/04 06:31:31;;;;;;;11.50;3.30;;;12.20;99.90;;;;;;783599;183;26478;-79
2024/04/04 06:33:57;;;;;;;11.10;3.03;;;12.20;99.90;;;;;;780533;183;26507;-82
2024/04/04 06:36:24;;;;;;;8.47;3.00;;;12.20;99.90;;;;;;781709;181;26470;-81
2024/04/04 06:38:50;;;;;;;7.03;2.90;;;12.20;99.90;;;;;;781181;183;26521;-80
2024/04/04 06:41:17;;;;;;;6.33;2.63;;;12.20;99.90;;;;;;782728;183;26508;-82
2024/04/04 06:43:43;;;;;;;8.53;3.40;;;12.30;99.90;;;;;;782266;183;26468;-79
2024/04/04 06:46:10;;;;;;;7.03;2.60;;;12.30;99.90;;;;;;782956;182;26469;-80
2024/04/04 06:48:40;;;;;;;11.83;2.90;;;12.30;99.90;;;;;;783911;181;26463;-78
2024/04/04 06:51:04;;;;;;;8.87;3.23;;;12.30;99.90;;;;;;785640;182;26491;-80
2024/04/04 06:53:30;;;;;;;6.20;2.83;;;12.30;99.90;;;;;;787182;183;26499;-80
2024/04/04 06:55:57;;;;;;;6.07;3.00;;;12.30;99.90;;;;;;782216;183;26466;-81
2024/04/04 06:58:24;;;;;;;7.73;3.03;;;12.30;99.90;;;;;;784351;183;26539;-79
2024/04/04 07:00:56;;;;;;;9.37;3.00;;;12.30;99.90;;;;;;784184;183;26504;-80
2024/04/04 07:03:22;;;;;;;7.53;2.23;;;12.40;99.90;;;;;;782219;183;27036;-80
2024/04/04 07:05:49;;;;;;;4.83;2.30;;;12.40;99.90;;;;;;782459;183;26477;-81
2024/04/04 07:08:15;;;;;;;8.17;3.00;;;12.50;99.90;;;;;;783908;183;26487;-79
2024/04/04 07:10:42;;;;;;;11.53;3.00;;;12.50;99.90;;;;;;781342;184;26470;-80
2024/04/04 07:13:09;;;;;;;12.07;2.77;;;12.50;99.90;;;;;;782572;183;26488;-77
2024/04/04 07:15:36;;;;;;;8.10;2.73;;;12.50;99.90;;;;;;783784;179;26475;-79
2024/04/04 07:18:02;;;;;;;8.47;2.60;;;12.50;99.90;;;;;;783796;183;26462;-81
2024/04/04 07:20:30;;;;;;;6.47;3.10;;;12.50;99.90;;;;;;784159;181;27054;-78
2024/04/04 07:22:56;;;;;;;8.17;2.50;;;12.60;99.90;;;;;;781481;181;26523;-78
2024/04/04 07:25:22;;;;;;;6.67;2.63;;;12.60;99.90;;;;;;783390;181;26489;-80
2024/04/04 07:27:49;;;;;;;5.07;2.10;;;12.60;99.90;;;;;;785328;181;26486;-80
2024/04/04 07:30:16;;;;;;;5.40;2.30;;;12.60;99.90;;;;;;781441;183;27097;-79
2024/04/04 07:32:42;;;;;;;4.60;2.20;;;12.60;99.90;;;;;;780891;181;26525;-80
2024/04/04 07:35:09;;;;;;;9.87;2.87;;;12.70;99.90;;;;;;781250;181;26485;-79
2024/04/04 07:37:35;;;;;;;5.73;2.20;;;12.70;99.90;;;;;;783687;180;26510;-78
2024/04/04 07:40:02;;;;;;;6.23;2.13;;;12.70;99.90;;;;;;782157;180;26506;-80
2024/04/04 07:42:29;;;;;;;5.70;1.83;;;12.70;99.90;;;;;;782822;183;26485;-81
2024/04/04 07:44:55;;;;;;;2.13;1.37;;;12.70;99.90;;;;;;781553;181;26510;-79
2024/04/04 07:47:22;;;;;;;8.20;2.10;;;12.70;99.90;;;;;;780189;183;26536;-79
2024/04/04 07:49:48;;;;;;;4.40;1.83;;;12.70;99.90;;;;;;780066;184;26516;-79
2024/04/04 07:52:15;;;;;;;3.47;1.70;;;12.70;99.90;;;;;;780285;183;26501;-78
2024/04/04 07:54:44;;;;;;;2.10;1.60;;;12.70;99.90;;;;;;782556;179;26494;-81
2024/04/04 07:57:08;;;;;;;4.67;2.20;;;12.70;99.90;;;;;;781041;181;26487;-81
2024/04/04 07:59:35;;;;;;;8.87;2.63;;;12.70;99.90;;;;;;784102;180;26467;-80
2024/04/04 08:02:02;;;;;;;4.37;2.57;;;12.70;99.90;;;;;;785600;182;26483;-79
2024/04/04 08:04:28;;;;;;;4.57;1.73;;;12.70;99.90;;;;;;784952;183;26500;-79
2024/04/04 08:06:55;;;;;;;5.13;1.90;;;12.80;99.90;;;;;;782468;181;27558;-80
2024/04/04 08:09:21;;;;;;;4.23;1.87;;;12.70;99.90;;;;;;781363;183;26461;-79
2024/04/04 08:11:48;;;;;;;6.30;2.70;;;12.80;99.90;;;;;;783042;183;26478;-80
2024/04/04 08:14:16;;;;;;;6.30;2.33;;;12.70;99.90;;;;;;782435;183;26556;-80
2024/04/04 08:16:41;;;;;;;6.57;2.80;;;12.60;99.90;;;;;;794383;180;26479;-80
2024/04/04 08:19:08;;;;;;;3.80;2.57;;;12.50;99.90;;;;;;780155;183;26538;-80
2024/04/04 08:21:34;;;;;;;2.83;1.87;;;12.40;99.90;;;;;;782090;183;26473;-81
2024/04/04 08:24:01;;;;;;;2.90;1.80;;;12.30;99.90;;;;;;790422;180;26469;-79
2024/04/04 08:26:27;;;;;;;3.47;2.13;;;12.20;99.90;;;;;;788890;180;26469;-80
2024/04/04 08:28:54;;;;;;;28.13;13.13;;;12.00;99.90;;;;;;783903;180;26466;-78
2024/04/04 08:31:21;;;;;;;6.80;3.70;;;12.00;99.90;;;;;;790736;180;26463;-78
2024/04/04 08:33:48;;;;;;;15.60;9.13;;;11.90;99.90;;;;;;789350;181;26476;-78
2024/04/04 08:36:15;;;;;;;5.33;3.00;;;11.90;99.90;;;;;;789421;180;26485;-79
2024/04/04 08:38:41;;;;;;;3.43;1.53;;;11.90;99.90;;;;;;791423;180;26450;-79
2024/04/04 08:41:08;;;;;;;14.67;7.57;;;11.90;99.90;;;;;;793845;177;26639;-79
2024/04/04 08:43:34;;;;;;;17.80;9.93;;;11.90;99.90;;;;;;777124;183;26510;-79
2024/04/04 08:46:02;;;;;;;13.87;7.83;;;11.90;99.90;;;;;;778901;181;26492;-79
2024/04/04 08:48:28;;;;;;;14.37;6.23;;;12.00;99.90;;;;;;779742;183;26473;-79
2024/04/04 08:50:55;;;;;;;6.37;3.27;;;12.10;99.90;;;;;;782989;180;26537;-79
2024/04/04 08:53:23;;;;;;;2.57;1.50;;;12.20;99.90;;;;;;782427;183;26524;-79
2024/04/04 08:55:51;;;;;;;4.53;2.07;;;12.20;99.90;;;;;;781815;181;26495;-79
2024/04/04 08:58:16;;;;;;;4.83;1.40;;;12.30;99.90;;;;;;779025;183;27037;-79
2024/04/04 09:00:43;;;;;;;2.70;1.30;;;12.40;99.90;;;;;;781163;183;26621;-78
2024/04/04 09:03:10;;;;;;;2.40;1.60;;;12.40;99.90;;;;;;779806;184;26578;-78
2024/04/04 09:05:44;;;;;;;1.90;1.40;;;12.40;99.90;;;;;;781626;181;26508;-80
2024/04/04 09:08:11;;;;;;;4.03;1.90;;;12.40;99.90;;;;;;782747;183;26535;-79
2024/04/04 09:10:38;;;;;;;3.17;1.77;;;12.50;99.90;;;;;;783587;180;27052;-78
2024/04/04 09:13:06;;;;;;;1.63;1.40;;;12.60;99.90;;;;;;781272;181;26523;-78
2024/04/04 09:15:31;;;;;;;2.57;1.90;;;12.60;99.90;;;;;;781261;184;26544;-78
2024/04/04 09:18:05;;;;;;;3.37;1.80;;;12.60;99.90;;;;;;782818;183;26634;-82
2024/04/04 09:20:30;;;;;;;2.47;1.40;;;12.60;99.90;;;;;;781505;183;27024;-80
2024/04/04 09:22:58;;;;;;;3.80;2.20;;;12.60;99.90;;;;;;780651;183;26549;-80
2024/04/04 09:25:24;;;;;;;6.03;3.30;;;12.60;99.90;;;;;;779395;184;26478;-79
2024/04/04 09:27:51;;;;;;;4.10;2.30;;;12.70;99.90;;;;;;781902;183;26517;-79
2024/04/04 09:30:17;;;;;;;3.87;2.50;;;12.80;99.90;;;;;;782082;180;27034;-78
2024/04/04 09:32:44;;;;;;;3.67;1.90;;;12.90;99.90;;;;;;780561;183;26475;-79
2024/04/04 09:35:11;;;;;;;2.60;1.57;;;13.10;99.90;;;;;;781140;184;26515;-79
2024/04/04 09:37:37;;;;;;;3.07;1.50;;;13.20;99.90;;;;;;782894;183;26467;-79
2024/04/04 09:40:05;;;;;;;1.70;1.43;;;13.40;99.90;;;;;;779354;183;27142;-79
2024/04/04 09:42:31;;;;;;;2.93;1.90;;;13.60;99.90;;;;;;782632;183;26621;-79
2024/04/04 09:44:57;;;;;;;2.57;2.00;;;13.80;99.90;;;;;;784788;181;26583;-79
2024/04/04 09:47:24;;;;;;;3.27;2.23;;;13.90;99.90;;;;;;780336;183;26535;-78
2024/04/04 09:49:52;;;;;;;16.47;10.80;;;14.00;99.90;;;;;;779177;184;26522;-79
2024/04/04 09:52:17;;;;;;;38.80;19.97;;;14.10;99.90;;;;;;782085;183;26480;-80
2024/04/04 09:54:44;;;;;;;28.57;14.33;;;14.20;99.90;;;;;;779023;183;26495;-80
2024/04/04 09:57:13;;;;;;;5.77;3.83;;;14.40;99.90;;;;;;779851;184;26503;-78
2024/04/04 09:59:38;;;;;;;4.23;2.50;;;14.30;99.90;;;;;;779292;183;26482;-78
2024/04/04 10:02:05;;;;;;;21.03;10.30;;;14.30;99.90;;;;;;779980;183;26570;-80
2024/04/04 10:04:33;;;;;;;29.40;14.97;;;14.40;99.90;;;;;;783002;183;27035;-79
2024/04/04 10:07:00;;;;;;;29.73;13.53;;;14.60;99.90;;;;;;779436;183;26520;-79
2024/04/04 10:09:28;;;;;;;26.97;14.17;;;14.60;99.90;;;;;;780410;183;26565;-79
2024/04/04 10:11:53;;;;;;;11.90;7.17;;;14.50;99.90;;;;;;782316;183;26478;-79
2024/04/04 10:14:20;;;;;;;5.43;2.20;;;14.30;99.90;;;;;;795384;178;26479;-78
2024/04/04 10:16:50;;;;;;;5.80;3.27;;;14.20;99.90;;;;;;784148;181;26457;-80
2024/04/04 10:19:14;;;;;;;23.63;11.60;;;14.30;99.90;;;;;;778255;183;27018;-80
2024/04/04 10:21:41;;;;;;;45.50;20.47;;;14.40;99.90;;;;;;787732;180;26451;-80
2024/04/04 10:24:09;;;;;;;28.17;12.33;;;14.40;99.90;;;;;;780593;180;26483;-79
2024/04/04 10:26:35;;;;;;;10.87;3.80;;;14.50;99.90;;;;;;780447;183;26491;-79
2024/04/04 10:29:03;;;;;;;68.93;32.63;;;14.50;99.90;;;;;;796228;177;26452;-80
2024/04/04 10:31:29;;;;;;;52.57;25.97;;;14.50;99.90;;;;;;788533;181;26445;-79
2024/04/04 10:34:00;;;;;;;50.37;23.17;;;14.50;99.90;;;;;;788289;180;26480;-79
2024/04/04 10:36:27;;;;;;;91.87;45.63;;;14.50;99.90;;;;;;793688;180;26448;-80
2024/04/04 10:38:54;;;;;;;19.90;10.37;;;14.50;99.90;;;;;;791163;181;26475;-78
2024/04/04 10:41:21;;;;;;;10.10;5.13;;;14.60;99.90;;;;;;789851;180;26595;-80
2024/04/04 10:43:48;;;;;;;6.67;3.17;;;14.70;99.90;;;;;;791786;180;26469;-80
2024/04/04 10:46:15;;;;;;;46.77;25.83;;;14.50;99.90;;;;;;779464;184;26474;-80
2024/04/04 10:48:42;;;;;;;25.17;12.93;;;14.60;99.90;;;;;;784128;181;26453;-80
2024/04/04 10:51:10;;;;;;;29.73;15.67;;;14.60;99.90;;;;;;786692;180;26453;-78
2024/04/04 10:53:36;;;;;;;8.63;4.20;;;14.70;99.90;;;;;;783344;181;26476;-79
2024/04/04 10:56:03;;;;;;;8.50;4.33;;;14.90;99.90;;;;;;785761;180;27079;-79
2024/04/04 10:58:29;;;;;;;76.60;33.77;;;14.80;99.90;;;;;;782405;182;26540;-79
2024/04/04 11:00:57;;;;;;;36.40;17.73;;;14.80;99.90;;;;;;786323;180;26546;-80
2024/04/04 11:03:23;;;;;;;32.20;15.40;;;14.80;99.90;;;;;;793001;180;26485;-78
2024/04/04 11:05:49;;;;;;;32.27;13.37;;;14.90;99.90;;;;;;779479;181;26483;-80
2024/04/04 11:08:16;;;;;;;13.53;6.70;;;14.80;99.90;;;;;;775951;183;26471;-79
2024/04/04 11:10:43;;;;;;;26.90;13.80;;;14.80;99.90;;;;;;781488;183;27131;-78
2024/04/04 11:13:09;;;;;;;12.67;5.73;;;14.80;99.90;;;;;;795411;180;26500;-79
2024/04/04 11:15:36;;;;;;;13.77;7.17;;;14.80;99.90;;;;;;785210;181;27014;-80
2024/04/04 11:18:02;;;;;;;8.83;3.60;;;14.80;99.90;;;;;;786733;180;26455;-80
2024/04/04 11:20:29;;;;;;;7.93;3.90;;;14.70;99.90;;;;;;786905;180;26453;-80
2024/04/04 11:22:55;;;;;;;13.73;6.77;;;14.70;99.90;;;;;;785261;181;26462;-80
2024/04/04 11:25:22;;;;;;;8.93;4.60;;;14.70;99.90;;;;;;786769;181;26486;-79
2024/04/04 11:27:49;;;;;;;12.70;5.70;;;14.60;99.90;;;;;;788936;180;26450;-79
2024/04/04 11:30:15;;;;;;;27.00;11.83;;;14.60;99.90;;;;;;787690;180;26522;-80
2024/04/04 11:32:42;;;;;;;28.87;12.97;;;14.50;99.90;;;;;;787274;179;26471;-80
2024/04/04 11:35:08;;;;;;;10.60;5.37;;;14.40;99.90;;;;;;796766;179;26482;-80
2024/04/04 11:37:35;;;;;;;5.97;3.33;;;14.30;99.90;;;;;;783900;181;26477;-80
2024/04/04 11:40:03;;;;;;;7.30;2.00;;;14.20;99.90;;;;;;784436;182;27702;-79
2024/04/04 11:42:28;;;;;;;13.27;5.67;;;13.70;99.90;;;;;;780860;181;26495;-81
2024/04/04 11:44:55;;;;;;;14.70;5.83;;;12.80;99.90;;;;;;783791;183;26498;-80
2024/04/04 11:47:21;;;;;;;9.43;4.97;;;12.20;99.90;;;;;;780568;181;26500;-79
2024/04/04 11:49:48;;;;;;;22.33;11.07;;;11.90;99.90;;;;;;779612;181;26601;-78
2024/04/04 11:52:15;;;;;;;31.90;13.70;;;11.60;99.90;;;;;;779268;181;26511;-79
2024/04/04 11:54:41;;;;;;;7.57;3.80;;;11.40;99.90;;;;;;782706;183;26543;-77
2024/04/04 11:57:08;;;;;;;10.77;4.80;;;11.40;99.90;;;;;;783123;181;26562;-77
2024/04/04 11:59:34;;;;;;;50.47;23.10;;;11.30;99.90;;;;;;783026;182;26562;-77
2024/04/04 12:02:01;;;;;;;55.97;24.43;;;11.30;99.90;;;;;;780364;182;26580;-78
2024/04/04 12:04:27;;;;;;;49.50;22.77;;;11.30;99.90;;;;;;778456;183;27061;-78
2024/04/04 12:06:54;;;;;;;53.67;22.13;;;11.30;99.90;;;;;;778877;183;26484;-79
2024/04/04 12:09:21;;;;;;;23.57;10.50;;;11.40;99.90;;;;;;780052;183;26477;-79
2024/04/04 12:11:50;;;;;;;57.20;25.43;;;11.50;99.90;;;;;;779968;182;26646;-78
2024/04/04 12:14:17;;;;;;;123.53;50.80;;;11.50;99.90;;;;;;780547;183;26503;-77
2024/04/04 12:16:50;;;;;;;78.20;29.80;;;11.50;99.90;;;;;;780041;183;27021;-79
2024/04/04 12:21:43;;;;;;;39.07;16.50;;;11.60;99.90;;;;;;779734;183;26475;-78
2024/04/04 12:24:09;;;;;;;54.90;25.17;;;11.60;99.90;;;;;;778816;183;26591;-77
2024/04/04 12:26:36;;;;;;;88.10;38.40;;;11.60;99.90;;;;;;779471;184;27110;-79
2024/04/04 12:29:02;;;;;;;64.03;28.40;;;11.50;99.90;;;;;;780063;183;26527;-78
2024/04/04 12:31:29;;;;;;;11.03;4.93;;;11.50;99.90;;;;;;779278;184;26514;-78
2024/04/04 12:33:55;;;;;;;7.17;2.70;;;11.50;99.90;;;;;;779419;183;26576;-78
2024/04/04 12:36:27;;;;;;;7.43;3.77;;;11.40;99.90;;;;;;780424;183;27089;-78
2024/04/04 12:38:54;;;;;;;21.30;9.47;;;11.40;99.90;;;;;;783413;183;26516;-78
2024/04/04 12:41:20;;;;;;;63.90;28.80;;;11.20;99.90;;;;;;778635;183;26519;-80